createdAt,value
2018-04-02T00:03:40.947Z,100803.44
2018-04-02T00:08:42.264Z,100802.81
2018-04-02T00:13:43.583Z,100796.27
2018-04-02T00:18:45.635Z,100801.84
2018-04-02T00:23:46.952Z,100805.33
2018-04-02T00:28:48.299Z,100794.27
2018-04-02T00:33:49.603Z,100803.25
2018-04-02T00:38:50.908Z,100811.86
2018-04-02T00:43:52.220Z,100813.37
2018-04-02T00:48:53.555Z,100809.79
2018-04-02T00:53:54.863Z,100812.36
2018-04-02T00:58:56.174Z,100807.59
2018-04-02T01:03:57.477Z,100813.22
2018-04-02T01:08:58.796Z,100811.49
2018-04-02T01:14:00.101Z,100803.63
2018-04-02T01:19:01.399Z,100810.91
2018-04-02T01:24:02.723Z,100813.97
2018-04-02T01:29:04.072Z,100811.25
2018-04-02T01:34:05.384Z,100809.27
2018-04-02T01:39:06.696Z,100805.67
2018-04-02T01:44:07.994Z,100796.08
2018-04-02T01:49:10.058Z,100789.48
2018-04-02T01:54:11.380Z,100798.83
2018-04-02T01:59:12.685Z,100785.17
2018-04-02T02:04:14.710Z,100804.92
2018-04-02T02:09:16.004Z,100782.84
2018-04-02T02:14:17.311Z,100784.80
2018-04-02T02:19:18.602Z,100788.89
2018-04-02T02:24:19.944Z,100772.69
2018-04-02T02:29:21.273Z,100769.19
2018-04-02T02:34:22.567Z,100759.55
2018-04-02T02:39:23.880Z,100758.72
2018-04-02T02:44:25.195Z,100750.64
2018-04-02T02:49:26.496Z,100766.28
2018-04-02T02:54:28.550Z,100756.27
2018-04-02T02:59:29.847Z,100756.39
2018-04-02T03:04:31.153Z,100752.53
2018-04-02T03:09:32.441Z,100761.48
2018-04-02T03:14:33.758Z,100751.91
2018-04-02T03:19:35.791Z,100748.87
2018-04-02T03:24:37.096Z,100748.41
2018-04-02T03:29:38.407Z,100738.03
2018-04-02T03:34:39.708Z,100743.67
2018-04-02T03:39:41.030Z,100747.66
2018-04-02T03:44:42.338Z,100740.91
2018-04-02T03:49:43.638Z,100735.82
2018-04-02T03:54:44.936Z,100740.53
2018-04-02T03:59:46.239Z,100740.67
2018-04-02T04:04:47.536Z,100741.73
2018-04-02T04:09:48.823Z,100738.97
2018-04-02T04:14:50.125Z,100738.53
2018-04-02T04:19:51.425Z,100732.64
2018-04-02T04:24:53.478Z,100737.00
2018-04-02T04:29:55.441Z,100736.65
2018-04-02T04:34:57.930Z,100730.64
2018-04-02T04:40:00.339Z,100729.58
2018-04-02T04:45:02.948Z,100737.32
2018-04-02T04:50:05.636Z,100736.38
2018-04-02T04:55:07.184Z,100735.43
2018-04-02T05:00:08.763Z,100733.62
2018-04-02T05:05:10.144Z,100737.52
2018-04-02T05:10:11.741Z,100729.14
2018-04-02T05:15:15.090Z,100728.58
2018-04-02T05:20:16.741Z,100728.82
2018-04-02T05:25:18.083Z,100724.49
2018-04-02T05:30:19.713Z,100723.88
2018-04-02T05:35:21.137Z,100733.42
2018-04-02T05:40:23.591Z,100724.84
2018-04-02T05:45:24.951Z,100721.63
2018-04-02T05:50:26.766Z,100729.08
2018-04-02T05:55:29.759Z,100730.46
2018-04-02T06:00:31.873Z,100734.12
2018-04-02T06:05:34.789Z,100733.02
2018-04-02T06:10:36.939Z,100736.25
2018-04-02T06:15:39.480Z,100734.37
2018-04-02T06:20:41.621Z,100729.73
2018-04-02T06:25:43.330Z,100733.92
2018-04-02T06:30:44.974Z,100729.91
2018-04-02T06:35:47.048Z,100727.82
2018-04-02T06:40:48.342Z,100724.53
2018-04-02T06:45:49.642Z,100719.34
2018-04-02T06:50:50.969Z,100721.89
2018-04-02T06:55:53.007Z,100719.37
2018-04-02T07:00:54.310Z,100719.91
2018-04-02T07:05:55.631Z,100714.47
2018-04-02T07:10:57.077Z,100712.34
2018-04-02T07:15:58.377Z,100705.20
2018-04-02T07:20:59.682Z,100711.29
2018-04-02T07:26:00.988Z,100714.28
2018-04-02T07:31:02.300Z,100714.09
2018-04-02T07:36:04.364Z,100724.30
2018-04-02T07:41:05.663Z,100719.66
2018-04-02T07:46:07.232Z,100714.13
2018-04-02T07:51:08.534Z,100714.11
2018-04-02T07:56:09.847Z,100710.36
2018-04-02T08:01:11.155Z,100704.63
2018-04-02T08:06:13.208Z,100702.87
2018-04-02T08:11:14.530Z,100705.92
2018-04-02T08:16:15.828Z,100700.61
2018-04-02T08:21:17.923Z,100701.20
2018-04-02T08:26:19.195Z,100697.93
2018-04-02T08:31:20.507Z,100692.08
2018-04-02T08:36:21.816Z,100687.41
2018-04-02T08:41:23.852Z,100686.66
2018-04-02T08:46:25.147Z,100674.73
2018-04-02T08:51:26.460Z,100682.12
2018-04-02T08:56:27.779Z,100681.30
2018-04-02T09:01:29.109Z,100681.56
2018-04-02T09:06:30.416Z,100661.52
2018-04-02T09:11:31.751Z,100646.49
2018-04-02T09:16:33.803Z,100650.02
2018-04-02T09:21:35.119Z,100647.70
2018-04-02T09:26:36.430Z,100642.36
2018-04-02T09:31:38.492Z,100631.05
2018-04-02T09:36:40.043Z,100620.34
2018-04-02T09:41:42.346Z,100622.23
2018-04-02T09:46:43.674Z,100608.55
2018-04-02T09:51:45.044Z,100597.99
2018-04-02T09:56:46.367Z,100602.48
2018-04-02T10:01:47.734Z,100589.06
2018-04-02T10:06:49.051Z,100581.91
2018-04-02T10:11:50.380Z,100574.38
2018-04-02T10:16:51.669Z,100561.29
2018-04-02T10:21:52.966Z,100541.58
2018-04-02T10:26:55.011Z,100537.98
2018-04-02T10:31:56.314Z,100532.95
2018-04-02T10:36:57.628Z,100537.89
2018-04-02T10:41:58.937Z,100542.24
2018-04-02T10:47:00.978Z,100537.13
2018-04-02T10:52:02.309Z,100524.98
2018-04-02T10:57:03.638Z,100525.70
2018-04-02T11:02:04.947Z,100523.43
2018-04-02T11:07:06.263Z,100513.38
2018-04-02T11:12:07.567Z,100511.77
2018-04-02T11:17:08.898Z,100505.94
2018-04-02T11:22:10.188Z,100490.09
2018-04-02T11:27:11.496Z,100484.32
2018-04-02T11:32:12.795Z,100479.59
2018-04-02T11:37:14.099Z,100467.81
2018-04-02T11:42:15.387Z,100456.88
2018-04-02T11:47:16.703Z,100440.72
2018-04-02T11:52:18.751Z,100436.52
2018-04-02T11:57:20.064Z,100429.56
2018-04-02T12:02:21.383Z,100424.84
2018-04-02T12:07:22.679Z,100423.09
2018-04-02T12:12:24.730Z,100420.16
2018-04-02T12:17:26.056Z,100415.88
2018-04-02T12:22:27.359Z,100405.59
2018-04-02T12:27:29.435Z,100398.08
2018-04-02T12:32:30.757Z,100394.44
2018-04-02T12:37:32.807Z,100385.01
2018-04-02T12:42:34.115Z,100382.33
2018-04-02T12:47:35.415Z,100379.84
2018-04-02T12:52:36.715Z,100366.02
2018-04-02T12:57:38.031Z,100358.56
2018-04-02T13:02:40.060Z,100349.37
2018-04-02T13:07:41.379Z,100339.59
2018-04-02T13:12:42.679Z,100324.25
2018-04-02T13:17:43.973Z,100314.10
2018-04-02T13:22:45.282Z,100301.59
2018-04-02T13:27:47.338Z,100291.90
2018-04-02T13:32:48.667Z,100283.88
2018-04-02T13:37:49.969Z,100273.20
2018-04-02T13:42:52.015Z,100254.76
2018-04-02T13:47:53.323Z,100252.94
2018-04-02T13:52:54.683Z,100238.86
2018-04-02T13:57:55.991Z,100240.34
2018-04-02T14:02:57.303Z,100230.31
2018-04-02T14:07:58.624Z,100232.69
2018-04-02T14:12:59.943Z,100221.58
2018-04-02T14:18:01.252Z,100220.75
2018-04-02T14:23:02.604Z,100205.22
2018-04-02T14:28:03.931Z,100191.97
2018-04-02T14:33:05.252Z,100190.42
2018-04-02T14:38:06.563Z,100188.83
2018-04-02T14:43:07.857Z,100175.80
2018-04-02T14:48:09.207Z,100162.81
2018-04-02T14:53:10.531Z,100158.74
2018-04-02T14:58:11.859Z,100158.80
2018-04-02T15:03:13.187Z,100155.65
2018-04-02T15:08:15.272Z,100146.11
2018-04-02T15:13:16.584Z,100125.29
2018-04-02T15:18:18.652Z,100115.08
2018-04-02T15:23:19.996Z,100099.97
2018-04-02T15:28:21.341Z,100092.44
2018-04-02T15:33:22.668Z,100082.48
2018-04-02T15:38:25.547Z,100071.37
2018-04-02T15:43:26.899Z,100064.56
2018-04-02T15:53:36.975Z,100035.21
2018-04-02T15:58:38.255Z,100024.65
2018-04-02T16:03:39.564Z,100018.25
2018-04-02T16:08:40.885Z,100025.50
2018-04-02T16:13:42.195Z,100016.30
2018-04-02T16:18:44.266Z,99996.05
2018-04-02T16:23:45.576Z,99987.80
2018-04-02T16:28:47.642Z,99977.62
2018-04-02T16:33:48.935Z,99975.28
2018-04-02T16:38:50.237Z,99969.36
2018-04-02T16:43:51.539Z,99956.97
2018-04-02T16:48:52.847Z,99954.17
2018-04-02T16:53:54.879Z,99953.58
2018-04-02T16:58:56.163Z,99942.30
2018-04-02T17:03:57.483Z,99939.47
2018-04-02T17:08:58.829Z,99943.88
2018-04-02T17:14:00.156Z,99936.53
2018-04-02T17:19:01.543Z,99927.91
2018-04-02T17:29:32.402Z,99917.16
2018-04-02T17:34:33.741Z,99915.77
2018-04-02T17:39:35.089Z,99915.16
2018-04-02T17:44:37.169Z,99911.17
2018-04-02T17:49:38.492Z,99902.28
2018-04-02T17:54:39.785Z,99891.73
2018-04-02T17:59:41.097Z,99879.45
2018-04-02T18:04:43.191Z,99864.02
2018-04-02T18:09:44.470Z,99858.03
2018-04-02T18:14:46.556Z,99842.99
2018-04-02T18:19:47.908Z,99832.54
2018-04-02T18:24:49.959Z,99832.95
2018-04-02T18:29:51.394Z,99834.82
2018-04-02T18:34:53.495Z,99832.97
2018-04-02T18:39:55.556Z,99825.37
2018-04-02T18:44:56.883Z,99820.49
2018-04-02T18:49:59.020Z,99813.86
2018-04-02T18:55:00.329Z,99810.34
2018-04-02T19:00:01.647Z,99800.70
2018-04-02T19:05:02.965Z,99804.57
2018-04-02T19:10:05.103Z,99797.98
2018-04-02T19:15:06.428Z,99798.88
2018-04-02T19:20:07.719Z,99804.40
2018-04-02T19:25:09.032Z,99800.09
2018-04-02T19:30:11.124Z,99797.66
2018-04-02T19:35:17.006Z,99796.55
2018-04-02T19:40:22.179Z,99797.83
2018-04-02T19:45:26.977Z,99803.35
2018-04-02T19:50:30.923Z,99802.54
2018-04-02T19:55:33.750Z,99796.52
2018-04-02T20:00:35.163Z,99787.16
2018-04-02T20:05:37.211Z,99781.04
2018-04-02T20:10:38.590Z,99769.90
2018-04-02T20:15:39.971Z,99760.31
2018-04-02T20:20:41.281Z,99764.70
2018-04-02T20:25:42.644Z,99748.17
2018-04-02T20:30:43.994Z,99738.25
2018-04-02T20:35:52.411Z,99723.61
2018-04-02T20:40:53.744Z,99731.36
2018-04-02T20:45:55.051Z,99725.16
2018-04-02T20:50:57.132Z,99725.81
2018-04-02T20:55:58.456Z,99723.38
2018-04-02T21:00:59.776Z,99728.08
2018-04-02T21:06:01.092Z,99727.36
2018-04-02T21:11:02.427Z,99723.80
2018-04-02T21:16:03.743Z,99714.33
2018-04-02T21:21:11.819Z,99715.05
2018-04-02T21:26:13.116Z,99710.20
2018-04-02T21:31:14.459Z,99704.36
2018-04-02T21:36:15.771Z,99706.78
2018-04-02T21:41:17.100Z,99709.82
2018-04-02T21:46:19.150Z,99700.53
2018-04-02T21:51:20.481Z,99696.52
2018-04-02T21:56:21.824Z,99682.88
2018-04-02T22:01:23.155Z,99690.45
2018-04-02T22:06:43.333Z,99680.37
2018-04-02T22:11:44.672Z,99668.51
2018-04-02T22:16:45.975Z,99668.60
2018-04-02T22:21:47.291Z,99661.67
2018-04-02T22:26:48.601Z,99661.48
2018-04-02T22:31:49.919Z,99646.38
2018-04-02T22:36:51.251Z,99640.13
2018-04-02T22:41:53.302Z,99636.43
2018-04-02T22:46:54.617Z,99631.25
2018-04-02T22:51:55.922Z,99638.96
2018-04-02T22:56:57.259Z,99613.93
2018-04-02T23:01:58.559Z,99640.05
2018-04-02T23:06:59.882Z,99631.84
2018-04-02T23:12:01.168Z,99630.95
2018-04-02T23:17:02.500Z,99630.52
2018-04-02T23:22:03.815Z,99628.72
2018-04-02T23:27:05.135Z,99624.62
2018-04-02T23:32:06.427Z,99626.15
2018-04-02T23:37:07.728Z,99630.85
2018-04-02T23:42:09.760Z,99620.98
2018-04-02T23:47:11.076Z,99617.29
2018-04-02T23:52:12.392Z,99614.88
2018-04-02T23:57:13.703Z,99610.59
